createdAt,value
2018-05-27T00:01:07.536Z,15.70
2018-05-27T00:03:35.760Z,15.60
2018-05-27T00:06:03.987Z,15.60
2018-05-27T00:08:32.234Z,15.60
2018-05-27T00:11:01.236Z,15.70
2018-05-27T00:13:29.454Z,15.70
2018-05-27T00:15:57.723Z,15.80
2018-05-27T00:18:25.943Z,15.70
2018-05-27T00:20:54.162Z,15.70
2018-05-27T00:23:22.417Z,15.50
2018-05-27T00:25:50.651Z,15.40
2018-05-27T00:28:18.871Z,15.30
2018-05-27T00:30:47.867Z,15.20
2018-05-27T00:33:16.091Z,15.20
2018-05-27T00:35:44.335Z,15.20
2018-05-27T00:38:12.608Z,15.10
2018-05-27T00:40:40.831Z,15.20
2018-05-27T00:43:09.055Z,15.30
2018-05-27T00:45:37.619Z,15.20
2018-05-27T00:48:06.607Z,15.30
2018-05-27T00:50:34.831Z,15.30
2018-05-27T00:53:04.003Z,15.40
2018-05-27T00:55:32.227Z,15.40
2018-05-27T00:58:00.457Z,15.30
2018-05-27T01:00:28.716Z,15.30
2018-05-27T01:02:57.709Z,15.40
2018-05-27T01:05:25.926Z,15.40
2018-05-27T01:07:54.171Z,15.20
2018-05-27T01:10:22.399Z,15.10
2018-05-27T01:12:50.618Z,15.00
2018-05-27T01:15:18.895Z,15.00
2018-05-27T01:17:47.158Z,15.00
2018-05-27T01:20:15.375Z,15.00
2018-05-27T01:22:43.638Z,15.00
2018-05-27T01:25:11.879Z,15.10
2018-05-27T01:27:40.100Z,15.10
2018-05-27T01:30:08.360Z,15.10
2018-05-27T01:32:36.583Z,15.10
2018-05-27T01:35:04.815Z,15.20
2018-05-27T01:37:33.066Z,15.10
2018-05-27T01:40:02.055Z,14.90
2018-05-27T01:42:30.283Z,14.90
2018-05-27T01:44:58.547Z,15.00
2018-05-27T01:47:26.776Z,15.00
2018-05-27T01:49:55.006Z,15.00
2018-05-27T01:52:23.239Z,14.90
2018-05-27T01:54:51.471Z,14.80
2018-05-27T01:57:19.711Z,14.90
2018-05-27T01:59:47.933Z,15.10
2018-05-27T02:02:16.162Z,15.10
2018-05-27T02:04:44.387Z,15.20
2018-05-27T02:07:12.638Z,15.30
2018-05-27T02:09:40.899Z,15.20
2018-05-27T02:12:09.132Z,15.10
2018-05-27T02:14:37.364Z,15.10
2018-05-27T02:17:06.139Z,15.40
2018-05-27T02:19:34.366Z,15.40
2018-05-27T02:22:02.587Z,15.50
2018-05-27T02:24:30.839Z,15.30
2018-05-27T02:26:59.067Z,15.30
2018-05-27T02:29:27.287Z,15.40
2018-05-27T02:31:56.336Z,15.60
2018-05-27T02:34:24.567Z,15.60
2018-05-27T02:36:52.781Z,15.70
2018-05-27T02:39:21.279Z,15.60
2018-05-27T02:41:49.507Z,15.50
2018-05-27T02:44:18.516Z,15.30
2018-05-27T02:46:46.791Z,15.30
2018-05-27T02:49:15.012Z,15.30
2018-05-27T02:51:43.241Z,15.20
2018-05-27T02:54:11.519Z,15.20
2018-05-27T02:56:39.744Z,15.40
2018-05-27T02:59:07.967Z,15.50
2018-05-27T03:01:36.742Z,15.60
2018-05-27T03:04:05.727Z,15.60
2018-05-27T03:06:33.956Z,15.60
2018-05-27T03:09:02.448Z,15.40
2018-05-27T03:11:30.678Z,15.20
2018-05-27T03:13:58.899Z,15.40
2018-05-27T03:16:27.148Z,15.50
2018-05-27T03:18:55.382Z,15.50
2018-05-27T03:21:23.603Z,15.50
2018-05-27T03:23:51.865Z,15.30
2018-05-27T03:26:20.826Z,15.30
2018-05-27T03:28:49.071Z,15.30
2018-05-27T03:31:17.305Z,15.40
2018-05-27T03:33:45.524Z,15.40
2018-05-27T03:36:13.751Z,15.30
2018-05-27T03:38:41.974Z,15.30
2018-05-27T03:41:10.211Z,15.20
2018-05-27T03:43:38.442Z,15.10
2018-05-27T03:46:06.674Z,15.10
2018-05-27T03:48:34.923Z,15.00
2018-05-27T03:51:03.147Z,15.00
2018-05-27T03:53:31.375Z,15.10
2018-05-27T03:55:59.615Z,15.10
2018-05-27T03:58:27.838Z,15.20
2018-05-27T04:00:56.068Z,15.20
2018-05-27T04:03:24.317Z,15.30
2018-05-27T04:06:09.967Z,15.40
2018-05-27T04:08:38.203Z,15.50
2018-05-27T04:11:06.424Z,15.80
2018-05-27T04:13:34.649Z,16.10
2018-05-27T04:16:03.674Z,16.60
2018-05-27T04:18:32.663Z,16.60
2018-05-27T04:21:00.896Z,16.60
2018-05-27T04:23:29.139Z,16.60
2018-05-27T04:25:57.372Z,16.60
2018-05-27T04:28:25.609Z,16.70
2018-05-27T04:30:53.828Z,16.60
2018-05-27T04:33:22.050Z,16.80
2018-05-27T04:35:50.291Z,17.20
2018-05-27T04:38:19.284Z,17.50
2018-05-27T04:40:47.512Z,17.40
2018-05-27T04:43:15.811Z,17.50
2018-05-27T04:45:44.040Z,17.40
2018-05-27T04:48:12.270Z,17.20
2018-05-27T04:50:40.532Z,16.80
2018-05-27T04:53:08.764Z,16.80
2018-05-27T04:55:36.992Z,16.60
2018-05-27T04:58:05.252Z,16.80
2018-05-27T05:00:33.479Z,16.80
2018-05-27T05:03:02.467Z,17.10
2018-05-27T05:05:30.706Z,17.10
2018-05-27T05:07:58.939Z,17.40
2018-05-27T05:10:27.168Z,17.40
2018-05-27T05:12:55.426Z,17.60
2018-05-27T05:15:23.656Z,17.90
2018-05-27T05:17:51.878Z,18.20
2018-05-27T05:20:20.123Z,18.60
2018-05-27T05:22:48.347Z,19.00
2018-05-27T05:25:16.575Z,19.20
2018-05-27T05:27:44.838Z,19.30
2018-05-27T05:30:13.046Z,19.50
2018-05-27T05:32:41.271Z,19.60
2018-05-27T05:35:10.299Z,19.80
2018-05-27T05:37:38.528Z,19.80
2018-05-27T05:40:06.757Z,20.10
2018-05-27T05:42:34.999Z,20.10
2018-05-27T05:45:03.986Z,20.70
2018-05-27T05:47:32.218Z,20.70
2018-05-27T05:50:00.443Z,21.40
2018-05-27T05:52:29.449Z,22.80
2018-05-27T05:54:57.672Z,22.80
2018-05-27T05:57:25.940Z,23.40
2018-05-27T05:59:54.170Z,23.90
2018-05-27T06:02:23.150Z,25.20
2018-05-27T06:04:51.391Z,25.10
2018-05-27T06:07:19.619Z,24.80
2018-05-27T06:09:48.630Z,24.90
2018-05-27T06:12:16.879Z,24.90
2018-05-27T06:14:45.107Z,25.00
2018-05-27T06:17:13.328Z,24.70
2018-05-27T06:19:42.379Z,24.00
2018-05-27T06:22:10.575Z,24.00
2018-05-27T06:24:38.804Z,23.90
2018-05-27T06:27:07.050Z,23.90
2018-05-27T06:29:36.038Z,24.60
2018-05-27T06:32:04.275Z,24.60
2018-05-27T06:34:32.710Z,24.80
2018-05-27T06:37:00.894Z,23.80
2018-05-27T06:39:29.110Z,24.00
2018-05-27T06:41:57.343Z,24.40
2018-05-27T06:44:25.563Z,24.80
2018-05-27T06:46:53.823Z,25.20
2018-05-27T06:49:22.048Z,25.30
2018-05-27T06:51:50.271Z,26.00
2018-05-27T06:54:18.502Z,26.50
2018-05-27T06:56:47.491Z,28.50
2018-05-27T06:59:15.734Z,28.50
2018-05-27T07:01:43.958Z,28.60
2018-05-27T07:04:12.947Z,29.20
2018-05-27T07:06:41.197Z,29.10
2018-05-27T07:09:09.419Z,29.10
2018-05-27T07:11:37.648Z,29.40
2018-05-27T07:14:05.895Z,29.50
2018-05-27T07:16:34.107Z,30.00
2018-05-27T07:19:02.335Z,30.10
2018-05-27T07:21:30.572Z,30.50
2018-05-27T07:23:59.556Z,30.70
2018-05-27T07:26:27.780Z,30.70
2018-05-27T07:28:56.035Z,31.40
2018-05-27T07:31:24.279Z,31.90
2018-05-27T07:33:52.477Z,32.10
2018-05-27T07:36:20.715Z,31.60
2018-05-27T07:38:48.936Z,31.70
2018-05-27T07:41:17.191Z,30.90
2018-05-27T07:43:46.207Z,31.40
2018-05-27T07:46:15.203Z,31.00
2018-05-27T07:48:43.427Z,30.90
2018-05-27T07:51:11.687Z,30.90
2018-05-27T07:53:39.909Z,32.00
2018-05-27T07:56:08.127Z,30.90
2018-05-27T07:58:36.391Z,30.80
2018-05-27T08:01:04.642Z,31.00
2018-05-27T08:03:33.666Z,29.80
2018-05-27T08:06:01.904Z,29.80
2018-05-27T08:08:30.127Z,29.40
2018-05-27T08:10:58.347Z,29.40
2018-05-27T08:13:26.587Z,29.80
2018-05-27T08:15:54.807Z,31.10
2018-05-27T08:18:23.035Z,31.70
2018-05-27T08:20:51.290Z,32.80
2018-05-27T08:23:19.516Z,33.10
2018-05-27T08:25:47.732Z,34.40
2018-05-27T08:28:15.991Z,33.90
2018-05-27T08:30:44.217Z,33.60
2018-05-27T08:33:12.442Z,33.30
2018-05-27T08:35:40.679Z,33.70
2018-05-27T08:38:08.903Z,35.20
2018-05-27T08:40:37.128Z,36.10
2018-05-27T08:43:05.381Z,37.10
2018-05-27T08:45:33.617Z,35.40
2018-05-27T08:48:01.832Z,34.80
2018-05-27T08:50:30.287Z,34.20
2018-05-27T08:52:58.502Z,35.40
2018-05-27T08:55:26.723Z,36.50
2018-05-27T08:57:55.741Z,38.20
2018-05-27T09:00:23.954Z,38.10
2018-05-27T09:02:52.179Z,37.50
2018-05-27T09:05:21.191Z,35.20
2018-05-27T09:07:49.422Z,35.10
2018-05-27T09:10:17.647Z,35.60
2018-05-27T09:12:45.911Z,35.60
2018-05-27T09:15:14.911Z,35.30
2018-05-27T09:17:43.110Z,35.30
2018-05-27T09:20:11.371Z,35.70
2018-05-27T09:22:39.600Z,34.60
2018-05-27T09:25:07.830Z,32.60
2018-05-27T09:27:36.067Z,32.90
2018-05-27T09:30:04.283Z,33.10
2018-05-27T09:32:32.567Z,31.90
2018-05-27T09:35:00.803Z,32.80
2018-05-27T09:37:29.779Z,35.30
2018-05-27T09:39:58.007Z,35.30
2018-05-27T09:42:26.264Z,36.10
2018-05-27T09:44:54.476Z,36.80
2018-05-27T09:47:22.696Z,36.00
2018-05-27T09:49:51.251Z,36.70
2018-05-27T09:52:19.476Z,36.90
2018-05-27T09:54:47.687Z,37.90
2018-05-27T09:57:15.946Z,38.80
2018-05-27T09:59:44.168Z,38.40
2018-05-27T10:02:12.388Z,34.70
2018-05-27T10:04:40.644Z,35.90
2018-05-27T10:07:08.859Z,36.20
2018-05-27T10:09:37.077Z,35.30
2018-05-27T10:12:06.103Z,36.70
2018-05-27T10:14:34.315Z,36.60
2018-05-27T10:17:02.539Z,37.20
2018-05-27T10:19:31.559Z,36.70
2018-05-27T10:21:59.777Z,36.70
2018-05-27T10:24:28.000Z,37.50
2018-05-27T10:26:56.268Z,37.60
2018-05-27T10:29:24.487Z,36.80
2018-05-27T10:31:52.707Z,36.60
2018-05-27T10:34:20.959Z,37.90
2018-05-27T10:36:49.187Z,37.40
2018-05-27T10:39:17.466Z,37.10
2018-05-27T10:41:45.654Z,36.20
2018-05-27T10:44:13.876Z,35.40
2018-05-27T10:46:42.103Z,33.50
2018-05-27T10:49:10.370Z,32.80
2018-05-27T10:51:38.592Z,35.10
2018-05-27T10:54:06.811Z,35.60
2018-05-27T10:56:35.830Z,38.40
2018-05-27T10:59:04.056Z,38.40
2018-05-27T11:01:32.294Z,37.70
2018-05-27T11:04:00.532Z,38.40
2018-05-27T11:06:29.528Z,38.60
2018-05-27T11:08:57.751Z,38.60
2018-05-27T11:11:25.983Z,39.40
2018-05-27T11:13:54.198Z,38.80
2018-05-27T11:16:22.419Z,38.30
2018-05-27T11:18:50.667Z,38.30
2018-05-27T11:21:18.894Z,39.10
2018-05-27T11:23:47.119Z,38.90
2018-05-27T11:26:15.375Z,38.40
2018-05-27T11:28:43.597Z,39.10
2018-05-27T11:31:11.815Z,39.00
2018-05-27T11:33:40.094Z,38.90
2018-05-27T11:36:08.311Z,38.80
2018-05-27T11:38:36.526Z,36.10
2018-05-27T11:41:04.795Z,36.10
2018-05-27T11:43:33.003Z,37.00
2018-05-27T11:46:01.231Z,37.80
2018-05-27T11:48:30.253Z,37.30
2018-05-27T11:50:58.472Z,37.30
2018-05-27T11:53:26.699Z,37.60
2018-05-27T11:55:55.197Z,38.00
2018-05-27T11:58:23.406Z,37.40
2018-05-27T12:00:51.627Z,37.10
2018-05-27T12:03:19.891Z,38.80
2018-05-27T12:05:48.102Z,39.80
2018-05-27T12:08:16.334Z,38.10
2018-05-27T12:10:44.584Z,36.30
2018-05-27T12:13:12.807Z,37.20
2018-05-27T12:15:41.030Z,37.70
2018-05-27T12:18:09.287Z,39.40
2018-05-27T12:20:37.512Z,37.90
2018-05-27T12:23:06.496Z,33.80
2018-05-27T12:25:34.746Z,33.70
2018-05-27T12:28:02.975Z,34.70
2018-05-27T12:30:31.196Z,34.80
2018-05-27T12:32:59.458Z,36.90
2018-05-27T12:35:27.664Z,36.70
2018-05-27T12:37:55.889Z,37.30
2018-05-27T12:40:24.147Z,36.80
2018-05-27T12:42:53.196Z,36.60
2018-05-27T12:45:21.347Z,36.60
2018-05-27T12:47:49.574Z,37.20
2018-05-27T12:50:17.795Z,35.60
2018-05-27T12:52:46.015Z,34.80
2018-05-27T12:55:14.270Z,34.10
2018-05-27T12:57:42.497Z,34.40
2018-05-27T13:00:11.483Z,34.70
2018-05-27T13:02:39.722Z,34.70
2018-05-27T13:05:07.942Z,34.70
2018-05-27T13:07:36.923Z,34.70
2018-05-27T13:10:05.179Z,34.70
2018-05-27T13:12:33.770Z,34.40
2018-05-27T13:15:02.003Z,35.40
2018-05-27T13:17:30.219Z,35.90
2018-05-27T13:19:58.434Z,35.60
2018-05-27T13:22:26.690Z,34.80
2018-05-27T13:24:55.670Z,33.90
2018-05-27T13:27:23.893Z,33.80
2018-05-27T13:29:52.127Z,33.10
2018-05-27T13:32:21.114Z,31.40
2018-05-27T13:34:49.331Z,31.40
2018-05-27T13:37:17.578Z,31.50
2018-05-27T13:39:46.558Z,31.20
2018-05-27T13:42:14.774Z,31.20
2018-05-27T13:44:43.003Z,31.00
2018-05-27T13:47:11.218Z,31.10
2018-05-27T13:49:39.450Z,30.50
2018-05-27T13:52:07.667Z,29.40
2018-05-27T13:54:36.065Z,29.40
2018-05-27T13:57:04.283Z,29.00
2018-05-27T13:59:32.507Z,28.70
2018-05-27T14:02:00.743Z,28.80
2018-05-27T14:04:28.967Z,28.20
2018-05-27T14:06:57.187Z,28.40
2018-05-27T14:09:25.439Z,28.50
2018-05-27T14:11:53.658Z,28.20
2018-05-27T14:14:22.642Z,28.70
2018-05-27T14:16:50.899Z,28.60
2018-05-27T14:19:19.118Z,29.00
2018-05-27T14:21:47.343Z,29.30
2018-05-27T14:24:15.661Z,29.40
2018-05-27T14:26:43.831Z,28.70
2018-05-27T14:29:12.059Z,28.90
2018-05-27T14:31:40.302Z,29.20
2018-05-27T14:34:08.539Z,29.40
2018-05-27T14:36:36.755Z,28.90
2018-05-27T14:39:05.679Z,28.50
2018-05-27T14:41:33.899Z,28.10
2018-05-27T14:44:02.123Z,28.20
2018-05-27T14:46:30.367Z,28.50
2018-05-27T14:48:58.587Z,28.70
2018-05-27T14:51:26.807Z,28.60
2018-05-27T14:53:55.084Z,28.60
2018-05-27T14:56:23.307Z,28.20
2018-05-27T14:58:51.541Z,28.20
2018-05-27T15:01:20.561Z,28.40
2018-05-27T15:03:48.786Z,28.40
2018-05-27T15:06:16.999Z,28.80
2018-05-27T15:08:45.264Z,29.10
2018-05-27T15:11:14.244Z,29.20
2018-05-27T15:13:42.459Z,29.10
2018-05-27T15:16:10.734Z,29.00
2018-05-27T15:18:38.974Z,28.60
2018-05-27T15:21:07.175Z,28.50
2018-05-27T15:23:35.427Z,28.70
2018-05-27T15:26:03.657Z,28.60
2018-05-27T15:28:31.881Z,29.20
2018-05-27T15:31:00.899Z,29.50
2018-05-27T15:33:29.119Z,29.50
2018-05-27T15:35:57.343Z,29.80
2018-05-27T15:38:25.597Z,29.60
2018-05-27T15:40:54.583Z,28.30
2018-05-27T15:43:22.803Z,28.30
2018-05-27T15:45:51.034Z,28.40
2018-05-27T15:48:20.048Z,27.70
2018-05-27T15:50:48.235Z,27.70
2018-05-27T15:53:16.505Z,27.60
2018-05-27T15:55:44.723Z,27.80
2018-05-27T15:58:12.943Z,27.30
2018-05-27T16:00:41.235Z,27.40
2018-05-27T16:03:09.458Z,27.40
2018-05-27T16:05:37.679Z,27.40
2018-05-27T16:08:06.679Z,27.90
2018-05-27T16:10:34.903Z,27.90
2018-05-27T16:13:03.886Z,28.10
2018-05-27T16:15:32.138Z,28.10
2018-05-27T16:18:00.363Z,28.70
2018-05-27T16:20:28.575Z,28.50
2018-05-27T16:22:56.854Z,28.30
2018-05-27T16:25:25.832Z,28.50
2018-05-27T16:27:54.048Z,28.50
2018-05-27T16:30:22.275Z,28.90
2018-05-27T16:32:51.267Z,29.20
2018-05-27T16:35:19.485Z,29.20
2018-05-27T16:37:47.736Z,29.40
2018-05-27T16:40:15.962Z,29.20
2018-05-27T16:42:44.183Z,29.40
2018-05-27T16:45:12.438Z,29.30
2018-05-27T16:47:40.659Z,28.70
2018-05-27T16:50:08.883Z,28.30
2018-05-27T16:52:37.137Z,28.30
2018-05-27T16:55:05.351Z,28.20
2018-05-27T16:57:33.571Z,28.00
2018-05-27T17:00:01.834Z,27.70
2018-05-27T17:02:30.083Z,27.60
2018-05-27T17:04:59.062Z,27.80
2018-05-27T17:07:27.323Z,27.80
2018-05-27T17:09:55.548Z,27.40
2018-05-27T17:12:23.789Z,27.20
2018-05-27T17:14:52.032Z,27.20
2018-05-27T17:17:20.254Z,26.90
2018-05-27T17:19:48.479Z,26.90
2018-05-27T17:22:16.720Z,26.90
2018-05-27T17:24:44.939Z,26.90
2018-05-27T17:27:13.163Z,26.80
2018-05-27T17:29:41.403Z,26.70
2018-05-27T17:32:09.621Z,26.70
2018-05-27T17:34:38.612Z,26.20
2018-05-27T17:37:06.867Z,26.20
2018-05-27T17:39:35.088Z,26.20
2018-05-27T17:42:03.307Z,26.00
2018-05-27T17:44:31.550Z,25.80
2018-05-27T17:46:59.778Z,25.70
2018-05-27T17:49:27.989Z,25.60
2018-05-27T17:51:56.231Z,25.50
2018-05-27T17:54:25.238Z,25.40
2018-05-27T17:56:53.441Z,25.40
2018-05-27T17:59:21.682Z,25.50
2018-05-27T18:01:50.660Z,25.40
2018-05-27T18:04:18.887Z,25.40
2018-05-27T18:06:47.130Z,25.50
2018-05-27T18:09:16.110Z,26.00
2018-05-27T18:11:44.334Z,25.90
2018-05-27T18:14:12.575Z,26.20
2018-05-27T18:16:41.554Z,26.20
2018-05-27T18:19:09.779Z,26.20
2018-05-27T18:21:38.020Z,26.30
2018-05-27T18:24:07.015Z,25.40
2018-05-27T18:26:35.251Z,25.30
2018-05-27T18:29:03.471Z,25.10
2018-05-27T18:31:31.687Z,25.00
2018-05-27T18:33:59.947Z,25.10
2018-05-27T18:36:28.167Z,25.30
2018-05-27T18:38:56.387Z,25.40
2018-05-27T18:41:24.647Z,25.30
2018-05-27T18:43:53.631Z,25.00
2018-05-27T18:46:21.856Z,24.90
2018-05-27T18:48:50.107Z,24.80
2018-05-27T18:51:18.327Z,24.70
2018-05-27T18:53:46.550Z,24.30
2018-05-27T18:56:15.049Z,24.30
2018-05-27T18:58:43.264Z,24.00
2018-05-27T19:01:11.503Z,24.00
2018-05-27T19:03:39.731Z,24.10
2018-05-27T19:06:08.710Z,23.50
2018-05-27T19:08:36.963Z,23.50
2018-05-27T19:11:05.183Z,23.40
2018-05-27T19:13:34.185Z,23.20
2018-05-27T19:16:02.940Z,23.20
2018-05-27T19:18:31.159Z,23.20
2018-05-27T19:20:59.383Z,23.00
2018-05-27T19:23:27.647Z,22.90
2018-05-27T19:25:55.875Z,22.70
2018-05-27T19:28:24.865Z,22.10
2018-05-27T19:30:53.111Z,22.10
2018-05-27T19:33:21.331Z,22.00
2018-05-27T19:35:49.559Z,22.00
2018-05-27T19:38:17.816Z,21.80
2018-05-27T19:40:46.043Z,21.60
2018-05-27T19:43:14.266Z,21.50
2018-05-27T19:45:42.527Z,21.60
2018-05-27T19:48:10.751Z,21.70
2018-05-27T19:50:38.970Z,21.60
2018-05-27T19:53:07.231Z,21.30
2018-05-27T19:55:35.459Z,21.10
2018-05-27T19:58:03.687Z,21.00
2018-05-27T20:00:31.928Z,20.90
2018-05-27T20:03:00.151Z,21.00
2018-05-27T20:05:28.374Z,21.20
2018-05-27T20:07:56.639Z,21.40
2018-05-27T20:10:24.872Z,21.30
2018-05-27T20:12:53.103Z,21.20
2018-05-27T20:15:21.360Z,21.00
2018-05-27T20:17:49.583Z,20.90
2018-05-27T20:20:17.811Z,21.00
2018-05-27T20:22:46.067Z,21.00
2018-05-27T20:25:14.303Z,21.10
2018-05-27T20:27:43.301Z,21.10
2018-05-27T20:30:11.571Z,21.10
2018-05-27T20:32:39.799Z,21.40
2018-05-27T20:35:08.032Z,21.60
2018-05-27T20:37:37.054Z,21.60
2018-05-27T20:40:05.291Z,21.60
2018-05-27T20:42:33.638Z,21.30
2018-05-27T20:45:01.888Z,21.10
2018-05-27T20:47:30.100Z,21.00
2018-05-27T20:49:58.348Z,21.00
2018-05-27T20:52:26.576Z,21.10
2018-05-27T20:54:55.603Z,21.10
2018-05-27T20:57:23.821Z,21.00
2018-05-27T20:59:52.051Z,20.90
2018-05-27T21:02:20.287Z,20.80
2018-05-27T21:04:48.506Z,20.80
2018-05-27T21:07:16.736Z,20.90
2018-05-27T21:09:44.999Z,20.80
2018-05-27T21:12:13.226Z,20.70
2018-05-27T21:14:41.456Z,20.60
2018-05-27T21:17:09.707Z,20.50
2018-05-27T21:19:37.940Z,20.50
2018-05-27T21:22:06.172Z,20.60
2018-05-27T21:24:34.420Z,20.80
2018-05-27T21:27:02.651Z,20.90
2018-05-27T21:29:30.871Z,20.90
2018-05-27T21:31:59.135Z,20.80
2018-05-27T21:34:27.367Z,20.60
2018-05-27T21:36:55.590Z,20.40
2018-05-27T21:39:23.841Z,20.40
2018-05-27T21:41:52.839Z,20.60
2018-05-27T21:44:21.087Z,20.50
2018-05-27T21:46:49.314Z,20.50
2018-05-27T21:49:17.539Z,20.40
2018-05-27T21:51:45.805Z,20.50
2018-05-27T21:54:14.034Z,20.50
2018-05-27T21:56:42.255Z,20.30
2018-05-27T21:59:10.563Z,20.00
2018-05-27T22:01:38.792Z,19.90
2018-05-27T22:04:07.023Z,19.80
2018-05-27T22:06:36.059Z,19.60
2018-05-27T22:09:04.270Z,19.60
2018-05-27T22:11:32.487Z,19.80
2018-05-27T22:14:00.739Z,20.00
2018-05-27T22:16:29.726Z,19.90
2018-05-27T22:18:57.960Z,19.80
2018-05-27T22:21:26.231Z,19.70
2018-05-27T22:23:54.452Z,19.50
2018-05-27T22:26:22.676Z,19.30
2018-05-27T22:28:50.937Z,19.20
2018-05-27T22:31:19.154Z,19.00
2018-05-27T22:33:47.384Z,19.10
2018-05-27T22:36:15.631Z,19.10
2018-05-27T22:38:43.863Z,18.90
2018-05-27T22:41:12.087Z,18.90
2018-05-27T22:43:40.331Z,19.10
2018-05-27T22:46:08.555Z,19.00
2018-05-27T22:48:36.779Z,18.80
2018-05-27T22:51:05.040Z,18.80
2018-05-27T22:53:33.263Z,18.70
2018-05-27T22:56:01.487Z,18.60
2018-05-27T22:58:30.092Z,18.70
2018-05-27T23:00:58.295Z,18.60
2018-05-27T23:03:26.515Z,18.40
2018-05-27T23:05:54.783Z,18.30
2018-05-27T23:08:23.007Z,18.20
2018-05-27T23:10:51.239Z,18.10
2018-05-27T23:13:19.504Z,18.00
2018-05-27T23:15:47.737Z,18.10
2018-05-27T23:18:15.959Z,18.30
2018-05-27T23:20:44.234Z,18.30
2018-05-27T23:23:12.460Z,18.00
2018-05-27T23:25:40.688Z,18.00
2018-05-27T23:28:08.922Z,17.80
2018-05-27T23:30:37.154Z,17.60
2018-05-27T23:33:05.380Z,17.70
2018-05-27T23:35:33.632Z,17.70
2018-05-27T23:38:01.864Z,17.60
2018-05-27T23:40:30.085Z,17.40
2018-05-27T23:42:58.323Z,17.30
2018-05-27T23:45:26.551Z,17.30
2018-05-27T23:47:54.780Z,17.20
2018-05-27T23:50:23.011Z,17.20
2018-05-27T23:52:51.236Z,17.30
2018-05-27T23:55:19.485Z,17.50
2018-05-27T23:57:48.528Z,17.20
